createdAt,value
2022-11-16T00:01:01.509Z,34.0
2022-11-16T00:06:01.518Z,33.2
2022-11-16T00:11:01.540Z,33.0
2022-11-16T00:16:02.429Z,32.7
2022-11-16T00:21:01.526Z,31.9
2022-11-16T00:26:01.513Z,30.0
2022-11-16T00:31:01.515Z,29.4
2022-11-16T00:36:01.597Z,29.3
2022-11-16T00:41:01.516Z,27.8
2022-11-16T00:46:01.522Z,27.5
2022-11-16T00:51:01.532Z,27.0
2022-11-16T00:56:01.529Z,27.3
2022-11-16T01:01:01.569Z,26.2
2022-11-16T01:06:01.615Z,27.0
2022-11-16T01:11:01.506Z,26.4
2022-11-16T01:16:01.532Z,24.9
2022-11-16T01:21:04.661Z,24.6
2022-11-16T01:26:01.506Z,24.4
2022-11-16T01:31:01.507Z,23.4
2022-11-16T01:36:01.580Z,23.2
2022-11-16T01:41:01.597Z,24.4
2022-11-16T01:46:01.523Z,23.6
2022-11-16T01:51:01.526Z,23.1
2022-11-16T01:56:01.456Z,23.0
2022-11-16T02:01:01.586Z,21.8
2022-11-16T02:06:01.523Z,21.2
2022-11-16T02:11:01.512Z,20.1
2022-11-16T02:16:01.553Z,20.6
2022-11-16T02:21:01.523Z,20.0
2022-11-16T02:26:01.510Z,20.9
2022-11-16T02:31:01.440Z,21.7
2022-11-16T02:36:01.390Z,22.9
2022-11-16T02:41:01.328Z,21.8
2022-11-16T02:46:01.003Z,22.2
2022-11-16T02:51:01.265Z,24.3
2022-11-16T02:56:01.284Z,23.6
2022-11-16T03:01:01.004Z,23.1
2022-11-16T03:06:01.504Z,24.7
2022-11-16T03:11:01.464Z,25.4
2022-11-16T03:16:00.964Z,23.6
2022-11-16T03:22:01.532Z,23.4
2022-11-16T03:27:01.521Z,23.6
2022-11-16T03:32:01.453Z,23.0
2022-11-16T03:42:01.523Z,21.3
2022-11-16T03:47:01.578Z,21.8
2022-11-16T03:52:01.638Z,21.0
2022-11-16T03:57:01.551Z,22.0
2022-11-16T04:02:01.551Z,21.8
2022-11-16T04:07:01.585Z,23.1
2022-11-16T04:12:01.580Z,23.9
2022-11-16T04:17:01.541Z,23.7
2022-11-16T04:22:01.558Z,22.1
2022-11-16T04:27:01.548Z,21.4
2022-11-16T04:32:01.581Z,21.2
2022-11-16T04:37:01.579Z,20.0
2022-11-16T04:42:01.548Z,19.3
2022-11-16T04:47:01.540Z,19.2
2022-11-16T04:52:01.881Z,18.0
2022-11-16T04:57:01.526Z,17.8
2022-11-16T05:02:01.532Z,16.0
2022-11-16T05:07:02.118Z,17.4
2022-11-16T05:12:01.551Z,17.0
2022-11-16T05:17:01.526Z,18.3
2022-11-16T05:22:01.542Z,17.6
2022-11-16T05:27:01.523Z,18.6
2022-11-16T05:32:01.577Z,17.0
2022-11-16T05:37:01.567Z,17.8
2022-11-16T05:42:01.555Z,17.2
2022-11-16T05:47:01.222Z,17.9
2022-11-16T05:52:02.053Z,20.7
2022-11-16T05:58:01.720Z,20.6
2022-11-16T06:03:01.579Z,27.8
2022-11-16T06:08:01.866Z,32.6
2022-11-16T06:13:01.551Z,34.2
2022-11-16T06:18:03.746Z,32.0
2022-11-16T06:23:01.611Z,33.7
2022-11-16T06:28:05.381Z,28.2
2022-11-16T06:33:01.607Z,23.6
2022-11-16T06:38:01.882Z,21.8
2022-11-16T06:48:01.960Z,19.5
2022-11-16T06:53:01.622Z,16.6
2022-11-16T06:58:01.525Z,17.0
2022-11-16T07:03:01.558Z,16.4
2022-11-16T07:08:01.533Z,16.0
2022-11-16T07:13:01.516Z,17.2
2022-11-16T07:18:01.827Z,18.1
2022-11-16T07:23:01.528Z,17.6
2022-11-16T07:28:01.623Z,18.1
2022-11-16T07:33:01.545Z,17.7
2022-11-16T07:38:01.543Z,17.4
2022-11-16T07:43:01.513Z,16.3
2022-11-16T07:48:01.583Z,16.1
2022-11-16T07:53:01.518Z,15.6
2022-11-16T07:58:01.702Z,15.8
2022-11-16T08:03:01.703Z,16.3
2022-11-16T08:08:01.540Z,17.7
2022-11-16T08:13:01.592Z,18.2
2022-11-16T08:18:01.574Z,17.8
2022-11-16T08:23:01.526Z,18.2
2022-11-16T08:28:01.513Z,17.8
2022-11-16T08:33:01.516Z,17.0
2022-11-16T08:38:01.558Z,16.0
2022-11-16T08:43:01.522Z,15.8
2022-11-16T08:48:03.877Z,16.0
2022-11-16T08:54:01.958Z,16.2
2022-11-16T08:59:01.520Z,15.8
2022-11-16T09:04:01.223Z,15.9
2022-11-16T09:09:01.598Z,16.9
2022-11-16T09:14:01.629Z,16.5
2022-11-16T09:19:02.290Z,15.4
2022-11-16T09:24:01.515Z,16.6
2022-11-16T09:29:01.508Z,16.2
2022-11-16T09:34:01.678Z,16.3
2022-11-16T09:39:31.940Z,17.0
2022-11-16T09:49:01.522Z,15.9
2022-11-16T09:54:01.679Z,17.8
2022-11-16T10:00:08.574Z,17.6
2022-11-16T10:05:01.511Z,17.8
2022-11-16T10:10:01.673Z,18.0
2022-11-16T10:15:17.115Z,18.8
2022-11-16T10:20:01.508Z,17.6
2022-11-16T10:25:01.384Z,18.1
2022-11-16T10:30:11.806Z,16.4
2022-11-16T10:35:06.529Z,16.1
2022-11-16T10:40:01.284Z,14.0
2022-11-16T10:45:05.371Z,12.8
2022-11-16T10:50:01.010Z,12.0
2022-11-16T10:55:02.323Z,13.0
2022-11-16T11:00:02.526Z,13.8
2022-11-16T11:05:01.240Z,15.0
2022-11-16T11:10:01.658Z,16.6
2022-11-16T11:15:05.469Z,17.4
2022-11-16T11:20:01.526Z,16.7
2022-11-16T11:25:01.548Z,16.4
2022-11-16T11:30:02.671Z,15.6
2022-11-16T11:35:01.451Z,14.6
2022-11-16T11:40:01.583Z,14.0
2022-11-16T11:45:04.733Z,14.7
2022-11-16T11:50:01.567Z,13.4
2022-11-16T11:55:01.555Z,13.3
2022-11-16T12:00:02.705Z,13.2
2022-11-16T12:05:01.605Z,12.2
2022-11-16T12:10:01.488Z,11.5
2022-11-16T12:15:17.858Z,11.8
2022-11-16T12:25:01.476Z,11.4
2022-11-16T12:30:16.788Z,11.0
2022-11-16T12:35:01.534Z,10.8
2022-11-16T12:45:17.809Z,11.1
2022-11-16T12:55:25.142Z,10.9
2022-11-16T13:15:03.179Z,6.0
2022-11-16T13:20:01.595Z,8.2
2022-11-16T13:26:01.524Z,8.3
2022-11-16T13:31:01.421Z,8.9
2022-11-16T13:36:17.403Z,9.4
2022-11-16T13:41:01.514Z,10.1
2022-11-16T13:46:01.532Z,10.0
2022-11-16T13:51:01.625Z,10.4
2022-11-16T13:56:42.598Z,10.5
2022-11-16T14:01:01.575Z,11.1
2022-11-16T14:06:01.412Z,11.9
2022-11-16T14:11:01.558Z,12.0
2022-11-16T14:16:01.503Z,12.4
2022-11-16T14:21:01.504Z,12.6
2022-11-16T14:26:16.036Z,11.9
2022-11-16T14:31:01.511Z,12.6
2022-11-16T14:36:01.505Z,14.2
2022-11-16T14:41:03.490Z,14.6
2022-11-16T14:46:01.625Z,17.8
2022-11-16T14:51:01.573Z,24.5
2022-11-16T14:56:01.614Z,28.4
2022-11-16T15:01:01.538Z,35.9
2022-11-16T15:06:03.029Z,43.4
2022-11-16T15:11:01.516Z,48.5
2022-11-16T15:16:01.529Z,50.7
2022-11-16T15:21:01.650Z,54.9
2022-11-16T15:26:01.681Z,55.7
2022-11-16T15:31:01.550Z,58.8
2022-11-16T15:36:16.843Z,60.6
2022-11-16T15:41:02.006Z,62.6
2022-11-16T15:46:01.491Z,63.7
2022-11-16T15:51:04.394Z,64.3
2022-11-16T15:56:01.535Z,63.7
2022-11-16T16:01:02.310Z,63.8
2022-11-16T16:06:01.544Z,62.1
2022-11-16T16:11:01.522Z,62.3
2022-11-16T16:16:01.420Z,62.1
2022-11-16T16:21:01.436Z,62.0
2022-11-16T16:26:01.536Z,62.1
2022-11-16T16:31:11.048Z,61.9
2022-11-16T16:36:01.458Z,61.4
2022-11-16T16:41:01.458Z,61.2
2022-11-16T16:46:01.490Z,61.3
2022-11-16T16:51:02.269Z,60.6
2022-11-16T17:01:03.354Z,59.1
2022-11-16T17:06:02.000Z,59.0
2022-11-16T17:11:01.604Z,57.5
2022-11-16T17:16:01.525Z,57.4
2022-11-16T17:21:01.584Z,57.1
2022-11-16T17:26:01.645Z,59.0
2022-11-16T17:31:01.525Z,59.2
2022-11-16T17:36:01.534Z,59.1
2022-11-16T17:41:01.523Z,58.8
2022-11-16T17:46:01.547Z,59.4
2022-11-16T17:51:01.629Z,57.9
2022-11-16T17:56:01.575Z,57.4
2022-11-16T18:01:01.880Z,57.0
2022-11-16T18:06:01.700Z,56.6
2022-11-16T18:11:01.521Z,55.5
2022-11-16T18:16:01.510Z,53.4
2022-11-16T18:21:01.533Z,50.9
2022-11-16T18:26:01.649Z,48.7
2022-11-16T18:31:01.419Z,43.6
2022-11-16T18:36:01.574Z,39.9
2022-11-16T18:42:01.649Z,32.8
2022-11-16T18:47:01.540Z,27.4
2022-11-16T18:52:02.880Z,21.0
2022-11-16T18:57:01.516Z,18.0
2022-11-16T19:02:01.630Z,14.4
2022-11-16T19:07:01.574Z,15.3
2022-11-16T19:12:01.554Z,13.9
2022-11-16T19:17:01.444Z,14.7
2022-11-16T19:27:01.624Z,13.5
2022-11-16T19:32:01.628Z,13.0
2022-11-16T19:37:01.543Z,12.6
2022-11-16T19:42:02.257Z,11.4
2022-11-16T19:47:01.616Z,11.7
2022-11-16T19:52:01.518Z,11.8
2022-11-16T19:57:01.540Z,11.5
2022-11-16T20:02:01.507Z,11.8
2022-11-16T20:07:01.611Z,11.9
2022-11-16T20:12:01.539Z,11.1
2022-11-16T20:22:01.538Z,10.4
2022-11-16T20:27:01.643Z,10.8
2022-11-16T20:32:01.591Z,11.5
2022-11-16T20:37:01.632Z,11.1
2022-11-16T20:42:01.567Z,10.6
2022-11-16T20:47:01.356Z,11.4
2022-11-16T20:52:01.547Z,10.4
2022-11-16T20:57:01.545Z,9.7
2022-11-16T21:02:01.515Z,9.0
2022-11-16T21:07:02.215Z,9.4
2022-11-16T21:12:01.514Z,9.5
2022-11-16T21:17:01.516Z,10.3
2022-11-16T21:22:01.737Z,10.6
2022-11-16T21:27:01.625Z,11.0
2022-11-16T21:32:01.527Z,11.1
2022-11-16T21:37:01.531Z,10.7
2022-11-16T21:42:01.590Z,10.1
2022-11-16T21:47:01.541Z,9.2
2022-11-16T21:52:01.540Z,9.4
2022-11-16T21:57:01.425Z,9.7
2022-11-16T22:03:01.643Z,9.5
2022-11-16T22:08:01.557Z,9.3
2022-11-16T22:13:01.546Z,9.6
2022-11-16T22:18:06.701Z,9.4
2022-11-16T22:23:01.523Z,9.0
2022-11-16T22:45:02.851Z,11.4
2022-11-16T22:50:01.819Z,10.2
2022-11-16T22:55:01.602Z,10.9
2022-11-16T23:06:02.478Z,10.5
2022-11-16T23:11:01.541Z,9.8
2022-11-16T23:16:01.513Z,10.0
2022-11-16T23:21:01.799Z,9.7
2022-11-16T23:26:01.569Z,9.9
2022-11-16T23:31:01.534Z,10.5
2022-11-16T23:36:01.564Z,10.8
2022-11-16T23:41:01.566Z,10.7
2022-11-16T23:46:01.744Z,10.4
2022-11-16T23:51:01.530Z,10.1
2022-11-16T23:56:05.709Z,9.5
